This is the latest recevied weather packets stored in our database for station/object EW3591. If no packets are shown the sender has not sent any weather packets the latest 1 day(s).
| Time | Temp. | Humidity | Pressure | Rain* | Wind** | Luminosity | Snow |
|---|---|---|---|---|---|---|---|
| 1778093479 | 8.33° C | 78% | 1010 hPa | 0 mm | - | - | - |
| 1778093359 | 8.33° C | 77% | 1010 hPa | 0 mm | - | - | - |
| 1778092998 | 8.33° C | 79% | 1009.9 hPa | 0 mm | - | - | - |
| 1778092637 | 8.33° C | 82% | 1009.8 hPa | 0 mm | - | - | - |
| 1778092276 | 7.78° C | 82% | 1009.9 hPa | 0 mm | - | - | - |
| 1778092156 | 7.78° C | 83% | 1009.9 hPa | 0 mm | - | - | - |
| 1778091795 | 7.78° C | 89% | 1009.9 hPa | 0 mm | - | - | - |
| 1778091554 | 7.78° C | 91% | 1009.9 hPa | 0 mm | - | - | - |
| 1778091434 | 7.78° C | 90% | 1009.9 hPa | 0 mm | - | - | - |
| 1778091073 | 7.78° C | 91% | 1009.8 hPa | 0 mm | - | - | - |
| 1778090953 | 8.33° C | 90% | 1009.9 hPa | 0 mm | - | - | - |
| 1778090712 | 8.89° C | 90% | 1009.7 hPa | 0 mm | - | - | - |
| 1778090592 | 8.89° C | 90% | 1009.7 hPa | 0 mm | - | - | - |
| 1778090351 | 8.89° C | 89% | 1009.5 hPa | 0 mm | - | - | - |
| 1778090231 | 8.89° C | 89% | 1009.3 hPa | 0 mm | - | - | - |
| 1778089990 | 9.44° C | 88% | 1009.3 hPa | 0 mm | - | - | - |
| 1778089389 | 11.11° C | 83% | 1008.8 hPa | 0 mm | - | - | - |
| 1778088186 | 13.33° C | 84% | 1008.6 hPa | 0 mm | - | - | - |
| 1778087825 | 12.22° C | 86% | 1008.8 hPa | 0 mm | - | - | - |
| 1778087464 | 11.67° C | 88% | 1009 hPa | 0 mm | - | - | - |
| 1778086983 | 11.11° C | 90% | 1008.8 hPa | 0 mm | - | - | - |
| 1778086622 | 10.56° C | 90% | 1008.8 hPa | 0 mm | - | - | - |
| 1778086261 | 10° C | 92% | 1009 hPa | 0 mm | - | - | - |
| 1778085780 | 10° C | 91% | 1009.1 hPa | 0 mm | - | - | - |
| 1778085419 | 10° C | 90% | 1009 hPa | 0 mm | - | - | - |
* Rain latest hour (hover to see other rain measurements)
** Current wind speed in m/s (hover to see current wind gust speed)